This is the latest recevied weather packets stored in our database for station/object OE-6072. If no packets are shown the sender has not sent any weather packets the latest 10 day(s).
| Time | Temp. | Humidity | Pressure | Rain* | Wind** | Luminosity | Snow |
|---|---|---|---|---|---|---|---|
| 1787875873 | 17.78° C | 83% | 1016.1 hPa | - | - | - | - |
| 1787874073 | 17.78° C | 84% | 1016.1 hPa | - | - | - | - |
| 1787870474 | 18.33° C | 83% | 1017 hPa | - | - | - | - |
| 1787868674 | 18.89° C | 82% | 1016.9 hPa | - | - | - | - |
| 1787866874 | 18.89° C | 82% | 1016.8 hPa | - | - | - | - |
| 1787865075 | 19.44° C | 82% | 1016.7 hPa | - | - | - | - |
| 1787863274 | 20° C | 78% | 1016.5 hPa | - | - | - | - |
| 1787861474 | 20.56° C | 75% | 1016.4 hPa | - | - | - | - |
| 1787859675 | 21.11° C | 72% | 1015.1 hPa | - | - | - | - |
| 1787857874 | 22.22° C | 67% | 1014.8 hPa | - | - | - | - |
| 1787856074 | 22.78° C | 65% | 1014.6 hPa | - | - | - | - |
| 1787854274 | 23.33° C | 66% | 1013.3 hPa | - | - | - | - |
| 1787852713 | 24.44° C | 64% | 1012.9 hPa | - | - | - | - |
| 1787850674 | 25.56° C | 63% | 1012.7 hPa | - | - | - | - |
| 1787848874 | 26.11° C | 58% | 1012.5 hPa | - | - | - | - |
| 1787847074 | 26.67° C | 58% | 1012.3 hPa | - | - | - | - |
| 1787845273 | 27.78° C | 59% | 1012.1 hPa | - | - | - | - |
| 1787843474 | 28.89° C | 57% | 1011.7 hPa | - | - | - | - |
| 1787841674 | 28.89° C | 52% | 1011.7 hPa | - | - | - | - |
| 1787839874 | 28.89° C | 51% | 1011.7 hPa | - | - | - | - |
| 1787838074 | 27.78° C | 49% | 1013.1 hPa | - | - | - | - |
| 1787836274 | 26.67° C | 53% | 1013.4 hPa | - | - | - | - |
| 1787834474 | 26.11° C | 55% | 1013.6 hPa | - | - | - | - |
| 1787832674 | 25.56° C | 56% | 1014.9 hPa | - | - | - | - |
| 1787830874 | 25° C | 57% | 1015.1 hPa | - | - | - | - |
* Rain since midnight (hover to see other rain measurements)
** Current wind speed in m/s (hover to see current wind gust speed)